Time,TemperatureC,DewpointC,PressurehPa,WindDirection,WindDirectionDegrees,WindSpeedKMH,WindSpeedGustKMH,Humidity,HourlyPrecipMM,Conditions,Clouds,dailyrainMM,SolarRadiationWatts/m^2,UVIndex,SoftwareType,DateUTC
2020-07-02 00:04:58,6.1,4.8,1011.2,NE,48,5.5,13,92,0.4,,,0.0,0,0,n/a,2020-07-01T12:04:58Z
2020-07-02 00:09:56,6,4.7,1011.3,ENE,73,4.1,9.7,91.3,0.4,,,0.0,0,0,n/a,2020-07-01T12:09:56Z
2020-07-02 00:14:56,6,4.6,1011.3,East,101,4.3,9.7,91.2,0.4,,,0.0,0,0,n/a,2020-07-01T12:14:56Z
2020-07-02 00:19:50,6,4.7,1011.4,ENE,60,2.8,6.4,91,0.4,,,0.0,0,0,n/a,2020-07-01T12:19:50Z
2020-07-02 00:24:58,6,4.7,1011.4,ENE,76,3.9,8,91,0.4,,,0.0,0,0,n/a,2020-07-01T12:24:58Z
2020-07-02 00:29:55,6.1,4.7,1011.4,East,98,4.1,9.7,91,0.4,,,0.0,0,0,n/a,2020-07-01T12:29:55Z
2020-07-02 00:34:59,6.1,4.8,1011.5,ESE,106,4.2,14.8,91.8,0.2,,,0.0,0,0,n/a,2020-07-01T12:34:59Z
2020-07-02 00:39:55,6.1,4.7,1011.6,East,84,2.8,8,91,0.2,,,0.0,0,0,n/a,2020-07-01T12:39:55Z
2020-07-02 00:44:56,6.1,4.7,1011.6,East,93,4.8,11.3,91,0.2,,,0.0,0,0,n/a,2020-07-01T12:44:56Z
2020-07-02 00:49:54,6,4.7,1011.6,SE,124,5.4,11.3,91,0.2,,,0.0,0,0,n/a,2020-07-01T12:49:54Z
2020-07-02 00:54:55,6,4.7,1011.8,ESE,115,5,13,91,0.2,,,0.0,0,0,n/a,2020-07-01T12:54:55Z
2020-07-02 00:59:59,6,4.7,1011.8,East,95,3.6,14.8,91,0.2,,,0.0,0,0,n/a,2020-07-01T12:59:59Z
2020-07-02 01:04:57,6,4.5,1011.9,NE,42,3.2,11.3,90,0.0,,,0.0,0,0,n/a,2020-07-01T13:04:57Z
2020-07-02 01:09:55,6.1,4.6,1011.9,East,79,3.1,16.7,90,0.0,,,0.0,0,0,n/a,2020-07-01T13:09:55Z
2020-07-02 01:14:54,6.1,4.8,1011.9,East,94,4,11.3,90.7,0.0,,,0.0,0,0,n/a,2020-07-01T13:14:54Z
2020-07-02 01:19:54,6.2,4.8,1011.8,ESE,112,5.7,14.8,91,0.0,,,0.0,0,0,n/a,2020-07-01T13:19:54Z
2020-07-02 01:24:55,6.1,4.8,1011.9,East,86,2.8,5.6,91,0.0,,,0.0,0,0,n/a,2020-07-01T13:24:55Z
2020-07-02 01:29:55,6.1,4.7,1011.9,East,94,2.9,6.4,91,0.0,,,0.0,0,0,n/a,2020-07-01T13:29:55Z
2020-07-02 01:34:59,6,4.7,1012.0,WNW,303,2.6,9.7,91,0.0,,,0.0,0,0,n/a,2020-07-01T13:34:59Z
2020-07-02 01:39:50,6,4.7,1012.0,SE,124,4.4,11.3,91,0.0,,,0.0,0,0,n/a,2020-07-01T13:39:50Z
2020-07-02 01:44:56,6,4.7,1012.1,East,94,3,6.4,91,0.0,,,0.0,0,0,n/a,2020-07-01T13:44:56Z
2020-07-02 01:49:56,6,4.7,1012.2,ENE,76,2.7,9.7,91,0.0,,,0.2,0,0,n/a,2020-07-01T13:49:56Z
2020-07-02 01:54:59,6,4.6,1012.2,East,99,3.2,8,91,0.2,,,0.2,0,0,n/a,2020-07-01T13:54:59Z
2020-07-02 01:59:54,5.9,4.6,1012.2,NE,41,3.5,11.3,91,0.2,,,0.2,0,0,n/a,2020-07-01T13:59:54Z
2020-07-02 02:04:54,5.9,4.6,1012.3,WNW,297,3,8,91,0.2,,,0.2,0,0,n/a,2020-07-01T14:04:54Z
2020-07-02 02:09:56,5.9,4.6,1012.4,WNW,289,2.1,5.6,91,0.2,,,0.2,0,0,n/a,2020-07-01T14:09:56Z
2020-07-02 02:14:56,5.9,4.6,1012.5,WNW,282,3.2,11.3,91,0.2,,,0.2,0,0,n/a,2020-07-01T14:14:56Z
2020-07-02 02:19:56,5.9,4.6,1012.4,West,268,4.4,11.3,91,0.2,,,0.2,0,0,n/a,2020-07-01T14:19:56Z
2020-07-02 02:24:55,5.9,4.5,1012.5,West,271,3.1,6.4,91,0.2,,,0.2,0,0,n/a,2020-07-01T14:24:55Z
2020-07-02 02:29:54,5.8,4.4,1012.5,South,188,4.1,13,91,0.2,,,0.2,0,0,n/a,2020-07-01T14:29:54Z
2020-07-02 02:34:59,5.7,4.3,1012.5,WNW,292,3.8,11.3,90.8,0.2,,,0.2,0,0,n/a,2020-07-01T14:34:59Z
2020-07-02 02:39:55,5.6,4.1,1012.6,West,270,4.5,9.7,90,0.2,,,0.2,0,0,n/a,2020-07-01T14:39:55Z
2020-07-02 02:44:49,5.6,4,1012.7,West,262,3.5,9.3,89.7,0.2,,,0.2,0,0,n/a,2020-07-01T14:44:49Z
2020-07-02 02:49:54,5.6,3.9,1012.9,WSW,255,4.2,14.5,89,0.2,,,0.2,0,0,n/a,2020-07-01T14:49:54Z
2020-07-02 02:54:59,5.7,4,1013.0,West,267,4.9,14.8,89,0.0,,,0.2,0,0,n/a,2020-07-01T14:54:59Z
2020-07-02 02:59:56,5.8,4.2,1013.0,WSW,250,5.4,16.7,89,0.0,,,0.2,0,0,n/a,2020-07-01T14:59:56Z
2020-07-02 03:04:55,5.9,4.2,1012.9,West,280,3.7,9.7,89,0.0,,,0.2,0,0,n/a,2020-07-01T15:04:55Z
2020-07-02 03:09:57,5.9,4.2,1012.9,West,264,2.9,6.4,89,0.0,,,0.2,0,0,n/a,2020-07-01T15:09:57Z
2020-07-02 03:14:50,5.8,4.2,1012.9,WSW,257,4.5,11.3,89,0.0,,,0.2,0,0,n/a,2020-07-01T15:14:50Z
2020-07-02 03:19:54,5.9,4.3,1012.9,WSW,258,5.3,14.5,89.2,0.0,,,0.2,0,0,n/a,2020-07-01T15:19:54Z
2020-07-02 03:24:59,5.9,4.3,1012.9,WSW,252,5.5,14.8,89.1,0.0,,,0.2,0,0,n/a,2020-07-01T15:24:59Z
2020-07-02 03:29:55,5.9,4.4,1013.1,WSW,251,4.7,13,89.9,0.0,,,0.2,0,0,n/a,2020-07-01T15:29:55Z
2020-07-02 03:34:54,5.9,4.4,1013.1,WSW,258,4.9,11.3,90,0.0,,,0.2,0,0,n/a,2020-07-01T15:34:54Z
2020-07-02 03:39:55,5.9,4.4,1013.1,West,260,5.4,11.3,90,0.0,,,0.2,0,0,n/a,2020-07-01T15:39:55Z
2020-07-02 03:44:59,5.9,4.4,1013.2,WSW,254,4.7,11.1,90,0.0,,,0.2,0,0,n/a,2020-07-01T15:44:59Z
2020-07-02 03:49:58,5.9,4.4,1013.2,West,259,4.1,9.7,90,0.0,,,0.2,0,0,n/a,2020-07-01T15:49:58Z
2020-07-02 03:54:56,5.9,4.4,1013.2,WSW,257,5.4,14.8,90.2,0.2,,,0.4,0,0,n/a,2020-07-01T15:54:56Z
2020-07-02 03:59:59,5.8,4.5,1013.2,West,270,4.4,14.8,90.9,0.2,,,0.4,0,0,n/a,2020-07-01T15:59:59Z
2020-07-02 04:04:51,5.8,4.5,1013.2,West,259,4,9.7,91,0.2,,,0.4,0,0,n/a,2020-07-01T16:04:51Z
2020-07-02 04:09:59,5.7,4.4,1013.3,West,274,5.2,9.7,91,0.2,,,0.4,0,0,n/a,2020-07-01T16:09:59Z
2020-07-02 04:14:57,5.6,4.3,1013.3,West,265,5.2,11.3,91,0.2,,,0.4,0,0,n/a,2020-07-01T16:14:57Z
2020-07-02 04:19:56,5.6,4.3,1013.3,West,262,7.3,11.3,91,0.2,,,0.4,0,0,n/a,2020-07-01T16:19:56Z
2020-07-02 04:24:55,5.6,4.2,1013.4,West,259,6.3,13,91,0.2,,,0.4,0,0,n/a,2020-07-01T16:24:55Z
2020-07-02 04:29:59,5.6,4.3,1013.4,WSW,256,5.8,11.3,91,0.2,,,0.4,0,0,n/a,2020-07-01T16:29:59Z
2020-07-02 04:34:54,5.6,4.3,1013.4,WSW,258,5.8,14.8,91,0.2,,,0.4,0,0,n/a,2020-07-01T16:34:54Z
2020-07-02 04:39:55,5.7,4.4,1013.4,WSW,253,5,13,91.5,0.2,,,0.4,0,0,n/a,2020-07-01T16:39:55Z
2020-07-02 04:44:56,5.7,4.4,1013.5,West,261,5.5,11.3,92,0.2,,,0.4,0,0,n/a,2020-07-01T16:44:56Z
2020-07-02 04:49:56,5.7,4.4,1013.6,West,273,3.7,9.7,92,0.2,,,0.4,0,0,n/a,2020-07-01T16:49:56Z
2020-07-02 04:54:50,5.7,4.4,1013.6,West,267,4.6,9.7,92,0.2,,,0.4,0,0,n/a,2020-07-01T16:54:50Z
2020-07-02 04:59:57,5.6,4.4,1013.7,West,259,4.4,11.3,92,0.0,,,0.4,0,0,n/a,2020-07-01T16:59:57Z
2020-07-02 05:04:59,5.6,4.4,1013.7,West,259,4.4,14.8,92,0.0,,,0.4,0,0,n/a,2020-07-01T17:04:59Z
2020-07-02 05:09:56,5.6,4.4,1013.7,WSW,253,3.6,6.4,92,0.0,,,0.4,0,0,n/a,2020-07-01T17:09:56Z
2020-07-02 05:14:54,5.6,4.4,1013.8,West,261,3.8,9.7,92,0.0,,,0.4,0,0,n/a,2020-07-01T17:14:54Z
2020-07-02 05:19:59,5.6,4.4,1013.8,West,269,3.5,11.3,92,0.0,,,0.6,0,0,n/a,2020-07-01T17:19:59Z
2020-07-02 05:24:54,5.6,4.4,1013.8,SSW,213,3.1,11.3,92,0.2,,,0.6,0,0,n/a,2020-07-01T17:24:54Z
2020-07-02 05:29:59,5.6,4.3,1014.0,West,269,4.1,11.1,92,0.2,,,0.6,0,0,n/a,2020-07-01T17:29:59Z
2020-07-02 05:34:59,5.6,4.4,1014.1,West,268,4.4,9.7,92,0.2,,,0.6,0,0,n/a,2020-07-01T17:34:59Z
2020-07-02 05:39:56,5.6,4.4,1014.1,West,261,4.1,8,92,0.2,,,0.6,0,0,n/a,2020-07-01T17:39:56Z
2020-07-02 05:44:56,5.6,4.4,1014.2,West,259,4.3,7.4,92,0.2,,,0.6,0,0,n/a,2020-07-01T17:44:56Z
2020-07-02 05:49:54,5.6,4.4,1014.3,West,272,3.8,6.4,92,0.2,,,0.6,0,0,n/a,2020-07-01T17:49:54Z
2020-07-02 05:54:55,5.6,4.4,1014.4,WSW,258,4.2,14.8,92,0.2,,,0.6,0,0,n/a,2020-07-01T17:54:55Z
2020-07-02 05:59:55,5.6,4.4,1014.5,West,274,4.8,11.3,92,0.2,,,0.6,0,0,n/a,2020-07-01T17:59:55Z
2020-07-02 06:04:50,5.7,4.5,1014.6,WSW,255,4.6,14.8,92,0.2,,,0.6,0,0,n/a,2020-07-01T18:04:50Z
2020-07-02 06:09:51,5.7,4.5,1014.6,West,272,5.4,13,92,0.2,,,0.6,0,0,n/a,2020-07-01T18:09:51Z
2020-07-02 06:14:51,5.7,4.5,1014.7,West,261,4.9,11.3,92,0.2,,,0.6,0,0,n/a,2020-07-01T18:14:51Z
2020-07-02 06:19:59,5.6,4.4,1014.8,West,264,3.3,12.9,92,0.2,,,0.6,0,0,n/a,2020-07-01T18:19:59Z
2020-07-02 06:24:54,5.6,4.4,1014.9,West,259,6.1,13,92,0.0,,,0.6,0,0,n/a,2020-07-01T18:24:54Z
2020-07-02 06:29:49,5.6,4.4,1014.9,West,260,4.5,9.7,92,0.0,,,0.6,0,0,n/a,2020-07-01T18:29:49Z
2020-07-02 06:34:50,5.6,4.4,1014.9,West,266,4,11.3,92,0.0,,,0.6,0,0,n/a,2020-07-01T18:34:50Z
2020-07-02 06:39:56,5.6,4.3,1015.1,West,264,4.6,11.3,92,0.0,,,0.6,0,0,n/a,2020-07-01T18:39:56Z
2020-07-02 06:44:55,5.6,4.3,1015.2,West,265,4.6,11.3,92,0.0,,,0.6,0,0,n/a,2020-07-01T18:44:55Z
2020-07-02 06:49:55,5.6,4.3,1015.4,West,262,5.2,11.3,92,0.0,,,0.6,0,0,n/a,2020-07-01T18:49:55Z
2020-07-02 06:54:56,5.6,4.4,1015.4,West,261,4.7,11.3,92,0.0,,,0.6,0,0,n/a,2020-07-01T18:54:56Z
2020-07-02 06:59:56,5.7,4.4,1015.6,West,260,3.8,11.3,91.6,0.0,,,0.6,0,0,n/a,2020-07-01T18:59:56Z
2020-07-02 07:04:59,5.7,4.4,1015.6,West,263,5.5,11.3,91.2,0.0,,,0.6,0,0,n/a,2020-07-01T19:04:59Z
2020-07-02 07:09:55,5.8,4.5,1015.7,West,263,4.9,11.3,91.2,0.0,,,0.6,0,0,n/a,2020-07-01T19:09:55Z
2020-07-02 07:14:55,5.8,4.4,1015.7,West,265,4.8,11.3,91.2,0.0,,,0.6,0,0,n/a,2020-07-01T19:14:55Z
2020-07-02 07:19:59,5.8,4.6,1015.8,West,266,5.3,11.3,92,0.0,,,0.6,0,0,n/a,2020-07-01T19:19:59Z
2020-07-02 07:24:54,5.8,4.6,1015.9,West,267,5.5,11.3,92,0.0,,,0.6,0,0,n/a,2020-07-01T19:24:54Z
2020-07-02 07:29:55,5.9,4.6,1015.9,West,274,6.2,13,92,0.0,,,0.6,0,0,n/a,2020-07-01T19:29:55Z
2020-07-02 07:34:55,5.9,4.7,1016.0,West,280,5.8,11.3,92,0.0,,,0.6,0,0,n/a,2020-07-01T19:34:55Z
2020-07-02 07:39:57,5.9,4.7,1016.0,West,271,8.1,16.7,92,0.0,,,0.6,0,0,n/a,2020-07-01T19:39:57Z
2020-07-02 07:44:55,5.9,4.7,1016.2,West,269,7.3,13,92,0.0,,,0.6,0,0,n/a,2020-07-01T19:44:55Z
2020-07-02 07:49:55,5.9,4.7,1016.3,West,274,6,11.3,92,0.0,,,0.6,0,0,n/a,2020-07-01T19:49:55Z
2020-07-02 07:54:54,5.9,4.7,1016.3,West,275,5.7,11.3,92,0.0,,,0.6,0,0,n/a,2020-07-01T19:54:54Z
2020-07-02 07:59:55,5.9,4.7,1016.5,West,276,7.6,11.3,92,0.0,,,0.6,0,0,n/a,2020-07-01T19:59:55Z
2020-07-02 08:04:57,6,4.7,1016.5,West,268,7.2,13,92,0.0,,,0.6,0,0,n/a,2020-07-01T20:04:57Z
2020-07-02 08:09:57,6,4.8,1016.6,West,275,8.5,13,92,0.0,,,0.6,9,0,n/a,2020-07-01T20:09:57Z
2020-07-02 08:14:57,6,4.8,1016.6,West,270,9.3,16.7,92,0.0,,,0.6,23,0,n/a,2020-07-01T20:14:57Z
2020-07-02 08:19:55,6,4.8,1016.6,West,266,7.2,18.5,92,0.0,,,0.6,23,0,n/a,2020-07-01T20:19:55Z
2020-07-02 08:24:56,6.1,4.8,1016.8,West,266,7.2,11.3,92,0.0,,,0.6,19,0,n/a,2020-07-01T20:24:56Z
2020-07-02 08:29:59,6.1,4.9,1016.9,West,261,8,13,92,0.0,,,0.6,14,0,n/a,2020-07-01T20:29:59Z
2020-07-02 08:34:56,6.2,4.9,1017.0,WSW,255,7,13,92,0.0,,,0.6,25,0,n/a,2020-07-01T20:34:56Z
2020-07-02 08:39:57,6.2,5,1017.1,WSW,255,5.7,11.1,92,0.0,,,0.6,30,0,n/a,2020-07-01T20:39:57Z
2020-07-02 08:44:57,6.2,5,1017.1,West,260,5.5,13,92,0.0,,,0.6,30,0,n/a,2020-07-01T20:44:57Z
2020-07-02 08:49:51,6.3,5.1,1017.3,West,261,6.1,11.3,92,0.0,,,0.6,33,0,n/a,2020-07-01T20:49:51Z
2020-07-02 08:54:56,6.3,5.1,1017.3,West,263,6.1,13,92,0.0,,,0.6,58,0,n/a,2020-07-01T20:54:56Z
2020-07-02 08:59:56,6.3,5.1,1017.3,WSW,257,6.1,13,92,0.0,,,0.6,113,0,n/a,2020-07-01T20:59:56Z
2020-07-02 09:04:59,6.4,5.2,1017.4,West,261,6.1,11.3,92,0.0,,,0.6,183,0,n/a,2020-07-01T21:04:59Z
2020-07-02 09:09:59,6.5,5.3,1017.4,WSW,256,6.8,13,92,0.0,,,0.6,213,0,n/a,2020-07-01T21:09:59Z
2020-07-02 09:14:54,6.7,5.4,1017.3,WSW,252,7.9,14.8,92,0.0,,,0.6,225,0,n/a,2020-07-01T21:14:54Z
2020-07-02 09:19:58,6.8,5.6,1017.4,WSW,256,6.1,14.8,92,0.0,,,0.6,193,0,n/a,2020-07-01T21:19:58Z
2020-07-02 09:24:56,6.8,5.6,1017.4,WSW,258,6.3,13,92,0.0,,,0.6,258,0,n/a,2020-07-01T21:24:56Z
2020-07-02 09:29:58,7,5.8,1017.4,WSW,257,7.1,14.8,92,0.0,,,0.6,311,0,n/a,2020-07-01T21:29:58Z
2020-07-02 09:34:54,7.2,6,1017.4,West,262,7,17.7,92,0.0,,,0.6,299,0,n/a,2020-07-01T21:34:54Z
2020-07-02 09:39:59,7.2,5.9,1017.5,West,267,6.8,18.5,91.4,0.0,,,0.6,162,0,n/a,2020-07-01T21:39:59Z
2020-07-02 09:44:59,7.2,5.8,1017.7,WSW,247,2.8,9.3,91,0.2,,,0.8,42,0,n/a,2020-07-01T21:44:59Z
2020-07-02 09:49:54,7.1,5.7,1017.7,ESE,121,1.8,5.6,91,0.2,,,0.8,113,0,n/a,2020-07-01T21:49:54Z
2020-07-02 09:54:58,7.1,5.7,1017.8,SE,144,1.6,5.6,91,0.2,,,0.8,144,0,n/a,2020-07-01T21:54:58Z
2020-07-02 09:59:57,7.1,5.7,1017.8,West,267,2.7,8,91,0.2,,,0.8,160,0,n/a,2020-07-01T21:59:57Z
2020-07-02 10:04:54,7.1,5.7,1017.9,West,268,2.9,6.4,91,0.2,,,0.8,132,0,n/a,2020-07-01T22:04:54Z
2020-07-02 10:09:56,7,5.6,1017.9,West,268,3,6.4,91,0.2,,,0.8,148,0,n/a,2020-07-01T22:09:56Z
2020-07-02 10:14:56,7.1,5.8,1017.9,SW,232,2.5,8,91.5,0.2,,,0.8,197,0,n/a,2020-07-01T22:14:56Z
2020-07-02 10:19:50,7.1,5.8,1018.0,SW,217,3.5,13,91.2,0.2,,,0.8,125,0,n/a,2020-07-01T22:19:50Z
2020-07-02 10:24:55,7.1,5.8,1018.0,West,280,3.3,11.3,91,0.2,,,0.8,160,0,n/a,2020-07-01T22:24:55Z
2020-07-02 10:29:58,7.2,5.8,1018.0,WSW,255,4.4,13,91,0.2,,,0.8,160,0,n/a,2020-07-01T22:29:58Z
2020-07-02 10:34:59,7.2,6,1018.1,WNW,282,4.6,11.3,92,0.2,,,0.8,285,0,n/a,2020-07-01T22:34:59Z
2020-07-02 10:39:59,7.3,6.1,1018.2,West,264,3,9.7,92,0.2,,,0.8,272,0.5,n/a,2020-07-01T22:39:59Z
2020-07-02 10:44:59,7.4,6.2,1018.2,NNW,332,3.1,12.9,92,0.2,,,0.8,274,0.6,n/a,2020-07-01T22:44:59Z
2020-07-02 10:49:57,7.5,6.2,1018.2,North,9,4.1,13,91.4,0.0,,,0.8,199,0.6,n/a,2020-07-01T22:49:57Z
2020-07-02 10:54:55,7.6,6.2,1018.2,NW,312,1.9,5.6,91,0.0,,,0.8,264,0.6,n/a,2020-07-01T22:54:55Z
2020-07-02 10:59:54,7.8,6.4,1018.4,ESE,105,3.5,11.3,91,0.0,,,0.8,218,0.6,n/a,2020-07-01T22:59:54Z
2020-07-02 11:04:59,7.7,6.2,1018.4,ESE,111,6.2,14.8,90.2,0.0,,,0.8,229,0.6,n/a,2020-07-01T23:04:59Z
2020-07-02 11:09:59,7.7,6.2,1018.4,East,82,3.2,5.6,90,0.0,,,0.8,257,0.6,n/a,2020-07-01T23:09:59Z
2020-07-02 11:14:58,7.8,6.2,1018.4,East,88,4,13,89.4,0.0,,,0.8,204,0.8,n/a,2020-07-01T23:14:58Z
2020-07-02 11:19:56,7.9,6.2,1018.4,NNE,33,2.6,8,89.4,0.0,,,0.8,594,1,n/a,2020-07-01T23:19:56Z
2020-07-02 11:24:55,8.2,6.6,1018.5,NE,53,4.2,9.7,90,0.0,,,0.8,510,0.8,n/a,2020-07-01T23:24:55Z
2020-07-02 11:29:55,8.2,6.5,1018.4,East,90,4.2,11.3,89.1,0.0,,,0.8,221,1.1,n/a,2020-07-01T23:29:55Z
2020-07-02 11:34:59,8.1,6.4,1018.4,ESE,117,4.9,13,89,0.0,,,0.8,432,1.1,n/a,2020-07-01T23:34:59Z
2020-07-02 11:39:49,8.2,6.5,1018.3,East,81,4,6.4,89,0.0,,,0.8,457,1.2,n/a,2020-07-01T23:39:49Z
2020-07-02 11:44:55,8.4,6.7,1018.3,NNE,33,3.4,14.8,89,0.0,,,0.8,406,1.2,n/a,2020-07-01T23:44:55Z
2020-07-02 11:49:47,8.5,6.6,1018.2,ESE,114,4.4,12.9,88.2,0.0,,,0.8,591,1.2,n/a,2020-07-01T23:49:47Z
2020-07-02 11:54:59,8.6,6.7,1018.3,East,83,4.3,13,87.6,0.0,,,0.8,225,0.8,n/a,2020-07-01T23:54:59Z
2020-07-02 11:59:52,8.5,6.3,1018.4,ENE,60,5.6,16.1,86.3,0.0,,,0.8,151,0.7,n/a,2020-07-01T23:59:52Z
2020-07-02 12:04:57,8.2,6,1018.4,ESE,107,5.9,16.7,86,0.0,,,0.8,125,0.8,n/a,2020-07-02T00:04:57Z
2020-07-02 12:09:57,8.1,5.7,1018.3,ESE,113,5.7,18.5,85.3,0.0,,,0.8,294,1.2,n/a,2020-07-02T00:09:57Z
2020-07-02 12:14:51,8.2,5.8,1018.3,ESE,123,6.1,13,85.4,0.0,,,0.8,478,1.3,n/a,2020-07-02T00:14:51Z
2020-07-02 12:19:59,8.5,6.3,1018.2,East,80,4,11.3,85.7,0.0,,,0.8,478,1.1,n/a,2020-07-02T00:19:59Z
2020-07-02 12:24:59,8.7,6.2,1018.2,ESE,103,4.3,9.7,84.9,0.0,,,0.8,515,1.3,n/a,2020-07-02T00:24:59Z
2020-07-02 12:29:56,8.8,6.3,1018.1,ESE,109,5,11.3,84.3,0.0,,,0.8,260,0.9,n/a,2020-07-02T00:29:56Z
2020-07-02 12:34:54,8.7,6,1018.0,ESE,122,7,18.5,83.3,0.0,,,0.8,158,0.8,n/a,2020-07-02T00:34:54Z
2020-07-02 12:39:55,8.5,5.6,1018.0,SE,125,9.9,22.5,82.2,0.0,,,0.8,135,1,n/a,2020-07-02T00:39:55Z
2020-07-02 12:44:56,8.4,5.5,1018.0,ESE,119,7.2,25.9,82,0.0,,,0.8,200,0.9,n/a,2020-07-02T00:44:56Z
2020-07-02 12:49:55,8.4,5.5,1018.1,ESE,119,5.6,13,82,0.0,,,0.8,197,0.8,n/a,2020-07-02T00:49:55Z
2020-07-02 12:54:54,8.5,5.6,1018.3,ESE,118,5.2,11.3,82,0.0,,,0.8,148,0.7,n/a,2020-07-02T00:54:54Z
2020-07-02 12:59:55,8.4,5.5,1018.2,ESE,113,5.3,13,82.1,0.0,,,0.8,83,0.9,n/a,2020-07-02T00:59:55Z
2020-07-02 13:04:59,8.2,5.4,1018.1,East,80,3.3,13,83.1,0.0,,,0.8,197,1.1,n/a,2020-07-02T01:04:59Z
2020-07-02 13:09:59,8.1,5.5,1018.1,East,97,4.3,16.7,84,0.0,,,0.8,149,0.9,n/a,2020-07-02T01:09:59Z
2020-07-02 13:14:58,8.1,5.5,1018.1,ESE,108,3.1,13,84,0.0,,,0.8,148,1.1,n/a,2020-07-02T01:14:58Z
2020-07-02 13:19:58,8.2,5.6,1018.0,ESE,112,4.6,14.8,83.7,0.0,,,0.8,190,0.8,n/a,2020-07-02T01:19:58Z
2020-07-02 13:24:57,8.4,5.7,1018.0,East,96,4.8,18.5,83.5,0.0,,,0.8,178,0.6,n/a,2020-07-02T01:24:57Z
2020-07-02 13:29:56,8.4,5.6,1018.0,ESE,102,5.6,14.5,83,0.0,,,0.8,125,0.6,n/a,2020-07-02T01:29:56Z
2020-07-02 13:34:56,8.3,5.6,1018.0,ESE,122,7,16.7,82.8,0.0,,,0.8,156,0.7,n/a,2020-07-02T01:34:56Z
2020-07-02 13:39:58,8.4,5.6,1018.0,ESE,111,3.4,9.7,82.7,0.0,,,0.8,322,0.7,n/a,2020-07-02T01:39:58Z
2020-07-02 13:44:56,8.5,5.8,1018.0,East,93,3.3,9.3,83,0.0,,,0.8,506,1,n/a,2020-07-02T01:44:56Z
2020-07-02 13:49:55,8.8,6,1018.0,ESE,103,5.3,18.5,82.5,0.0,,,0.8,459,0.7,n/a,2020-07-02T01:49:55Z
2020-07-02 13:54:54,8.7,5.7,1018.1,SE,127,8.2,14.8,81.2,0.0,,,0.8,81,0.5,n/a,2020-07-02T01:54:54Z
2020-07-02 13:59:58,8.4,5.5,1018.1,ESE,114,3.2,13,81.6,0.0,,,0.8,47,0,n/a,2020-07-02T01:59:58Z
2020-07-02 14:04:50,8.3,5.5,1018.1,East,81,3.4,9.7,82.4,0.0,,,0.8,81,0.7,n/a,2020-07-02T02:04:50Z
2020-07-02 14:09:56,8.2,5.5,1018.1,NE,38,2.6,6.4,83,0.0,,,0.8,146,0.7,n/a,2020-07-02T02:09:56Z
2020-07-02 14:14:59,8.2,5.7,1018.2,NW,317,4.1,8,83.9,0.0,,,0.8,287,0.8,n/a,2020-07-02T02:14:59Z
2020-07-02 14:19:58,8.5,5.9,1018.2,ENE,62,4.2,13,83.8,0.0,,,0.8,359,0.7,n/a,2020-07-02T02:19:58Z
2020-07-02 14:24:58,8.5,5.6,1018.3,ENE,71,5,14.8,82.3,0.0,,,0.8,84,0.6,n/a,2020-07-02T02:24:58Z
2020-07-02 14:29:57,8.3,5.4,1018.3,East,86,4.3,13,82,0.0,,,0.8,91,0.6,n/a,2020-07-02T02:29:57Z
2020-07-02 14:34:59,8.2,5.4,1018.4,ENE,65,3.2,13,82,0.0,,,0.8,374,0.7,n/a,2020-07-02T02:34:59Z
2020-07-02 14:39:54,8.4,5.7,1018.4,SW,231,2.6,12.9,83,0.0,,,0.8,424,0.7,n/a,2020-07-02T02:39:54Z
2020-07-02 14:44:58,8.8,6,1018.5,WSW,241,6.6,16.7,82.4,0.0,,,0.8,431,0.6,n/a,2020-07-02T02:44:58Z
2020-07-02 14:49:56,8.9,6.1,1018.5,SE,127,4.9,9.7,82.5,0.0,,,0.8,134,0,n/a,2020-07-02T02:49:56Z
2020-07-02 14:54:51,8.6,5.9,1018.5,SE,134,3.6,8,83.5,0.0,,,0.8,76,0,n/a,2020-07-02T02:54:51Z
2020-07-02 14:59:56,8.3,5.9,1018.6,ESE,120,1.6,5.6,84.7,0.0,,,0.8,267,0.5,n/a,2020-07-02T02:59:56Z
2020-07-02 15:04:59,8.2,5.7,1018.7,ESE,117,4.3,11.3,84.6,0.0,,,0.8,70,0,n/a,2020-07-02T03:04:59Z
2020-07-02 15:09:54,8,5.5,1018.8,East,89,3.5,11.1,84,0.0,,,0.8,56,0,n/a,2020-07-02T03:09:54Z
2020-07-02 15:14:59,8,5.4,1018.8,East,95,2.5,6.4,83.7,0.0,,,0.8,104,0,n/a,2020-07-02T03:14:59Z
2020-07-02 15:19:58,8,5.3,1018.9,East,91,3.9,11.3,83,0.0,,,0.8,128,0,n/a,2020-07-02T03:19:58Z
2020-07-02 15:24:57,8,5.3,1018.8,North,11,2.2,11.1,83,0.0,,,0.8,91,0,n/a,2020-07-02T03:24:57Z
2020-07-02 15:29:59,8,5.3,1018.9,SSE,150,3,11.3,83,0.0,,,0.8,39,0,n/a,2020-07-02T03:29:59Z
2020-07-02 15:34:54,7.9,5.2,1019.0,NNW,330,2.4,5.6,83,0.0,,,0.8,123,0,n/a,2020-07-02T03:34:54Z
2020-07-02 15:39:56,7.9,5.2,1019.0,NW,317,2.9,11.3,83,0.0,,,0.8,169,0,n/a,2020-07-02T03:39:56Z
2020-07-02 15:44:54,7.9,5.2,1019.0,NNW,348,1.9,5.6,83,0.0,,,0.8,169,0,n/a,2020-07-02T03:44:54Z
2020-07-02 15:49:55,8,5.2,1019.0,WNW,299,3.1,9.7,83,0.0,,,0.8,120,0,n/a,2020-07-02T03:49:55Z
2020-07-02 15:54:59,8.1,5.4,1019.0,WNW,296,2.6,6.4,83,0.0,,,0.8,125,0,n/a,2020-07-02T03:54:59Z
2020-07-02 15:59:57,8.3,5.4,1019.2,WNW,286,2.9,9.7,82.3,0.0,,,0.8,33,0,n/a,2020-07-02T03:59:57Z
2020-07-02 16:04:58,8.1,5.2,1019.2,West,262,2.2,9.3,82,0.0,,,0.8,32,0,n/a,2020-07-02T04:04:58Z
2020-07-02 16:09:59,8,5.1,1019.2,WNW,299,1.4,5.6,82,0.0,,,0.8,51,0,n/a,2020-07-02T04:09:59Z
2020-07-02 16:14:58,7.9,5.2,1019.3,West,268,2.1,6.4,83,0.0,,,0.8,47,0,n/a,2020-07-02T04:14:58Z
2020-07-02 16:19:58,7.8,5.1,1019.3,WNW,289,2.6,13,83,0.0,,,0.8,32,0,n/a,2020-07-02T04:19:58Z
2020-07-02 16:24:59,7.7,5.1,1019.3,West,270,1.5,4.8,83.6,0.0,,,0.8,26,0,n/a,2020-07-02T04:24:59Z
2020-07-02 16:29:55,7.6,5.1,1019.5,WSW,251,1.9,5.6,84,0.0,,,0.8,33,0,n/a,2020-07-02T04:29:55Z
2020-07-02 16:34:54,7.6,5.1,1019.5,WSW,256,2.3,5.6,84.3,0.0,,,0.8,39,0,n/a,2020-07-02T04:34:54Z
2020-07-02 16:39:54,7.6,5.2,1019.5,West,262,3.3,6.4,85,0.0,,,0.8,21,0,n/a,2020-07-02T04:39:54Z
2020-07-02 16:44:54,7.6,5.2,1019.5,WNW,283,1.2,5.6,85,0.0,,,0.8,21,0,n/a,2020-07-02T04:44:54Z
2020-07-02 16:49:59,7.6,5.3,1019.5,NNE,32,2.7,8,85.3,0.0,,,0.8,12,0,n/a,2020-07-02T04:49:59Z
2020-07-02 16:54:59,7.5,5.3,1019.6,WSW,247,0.7,3.7,86,0.0,,,0.8,7,0,n/a,2020-07-02T04:54:59Z
2020-07-02 16:59:54,7.3,5.2,1019.6,West,259,0.5,3.7,86,0.0,,,0.8,5,0,n/a,2020-07-02T04:59:54Z
2020-07-02 17:04:57,7.2,5.1,1019.6,West,259,0.9,3.7,86.2,0.0,,,0.8,5,0,n/a,2020-07-02T05:04:57Z
2020-07-02 17:09:54,7.1,5.1,1019.7,WSW,250,1,3.7,87,0.0,,,0.8,0,0,n/a,2020-07-02T05:09:54Z
2020-07-02 17:14:54,7.1,5.1,1019.7,West,271,1.3,3.7,87,0.0,,,0.8,0,0,n/a,2020-07-02T05:14:54Z
2020-07-02 17:19:54,7.1,5.1,1019.8,WSW,254,2.8,11.3,87.1,0.0,,,0.8,0,0,n/a,2020-07-02T05:19:54Z
2020-07-02 17:24:54,7.1,5.3,1019.8,West,261,3.7,11.1,88,0.0,,,0.8,0,0,n/a,2020-07-02T05:24:54Z
2020-07-02 17:29:59,7.1,5.2,1019.8,West,260,2.6,6.4,88,0.0,,,0.8,0,0,n/a,2020-07-02T05:29:59Z
2020-07-02 17:34:54,7,5.2,1019.8,WSW,257,1.6,5.6,88,0.0,,,0.8,0,0,n/a,2020-07-02T05:34:54Z
2020-07-02 17:39:56,6.9,5.1,1019.9,WSW,244,1.9,5.6,88,0.0,,,0.8,0,0,n/a,2020-07-02T05:39:56Z
2020-07-02 17:44:50,6.9,5.1,1019.9,WSW,246,1.6,4.8,88.5,0.0,,,0.8,0,0,n/a,2020-07-02T05:44:50Z
2020-07-02 17:49:54,6.9,5.2,1019.9,West,270,2.2,5.6,89,0.0,,,0.8,0,0,n/a,2020-07-02T05:49:54Z
2020-07-02 17:54:57,6.9,5.2,1020.0,West,276,1.5,3.7,89,0.0,,,0.8,0,0,n/a,2020-07-02T05:54:57Z
2020-07-02 17:59:57,6.8,5.2,1020.0,West,260,2.7,5.6,89,0.0,,,0.8,0,0,n/a,2020-07-02T05:59:57Z
2020-07-02 18:04:54,6.8,5.1,1019.9,WSW,251,2.3,5.6,89,0.0,,,0.8,0,0,n/a,2020-07-02T06:04:54Z
2020-07-02 18:09:57,6.7,5.1,1019.9,WSW,254,2.7,5.6,89,0.0,,,0.8,0,0,n/a,2020-07-02T06:09:57Z
2020-07-02 18:14:58,6.6,5,1020.0,WSW,253,2.6,5.6,89,0.0,,,0.8,0,0,n/a,2020-07-02T06:14:58Z
2020-07-02 18:19:59,6.5,4.9,1020.0,WSW,257,3.3,5.6,89,0.0,,,0.8,0,0,n/a,2020-07-02T06:19:59Z
2020-07-02 18:24:59,6.5,4.8,1020.0,WSW,254,3.1,5.6,89,0.0,,,0.8,0,0,n/a,2020-07-02T06:24:59Z
2020-07-02 18:29:59,6.4,4.7,1020.0,WSW,258,1.9,3.7,89,0.0,,,0.8,0,0,n/a,2020-07-02T06:29:59Z
2020-07-02 18:34:58,6.3,4.6,1020.1,West,260,2.2,6.4,89,0.0,,,0.8,0,0,n/a,2020-07-02T06:34:58Z
2020-07-02 18:39:55,6.2,4.6,1020.2,West,259,2.7,5.6,89.2,0.0,,,0.8,0,0,n/a,2020-07-02T06:39:55Z
2020-07-02 18:44:58,6.2,4.7,1020.3,WSW,249,2,3.7,90,0.0,,,0.8,0,0,n/a,2020-07-02T06:44:58Z
2020-07-02 18:49:56,6.2,4.7,1020.3,WSW,242,2.6,6.4,90,0.0,,,0.8,0,0,n/a,2020-07-02T06:49:56Z
2020-07-02 18:54:56,6.2,4.7,1020.4,WSW,252,2.2,5.6,90,0.0,,,0.8,0,0,n/a,2020-07-02T06:54:56Z
2020-07-02 18:59:55,6.1,4.6,1020.4,WSW,256,2.4,5.6,90,0.0,,,0.8,0,0,n/a,2020-07-02T06:59:55Z
2020-07-02 19:04:58,6.1,4.6,1020.4,WSW,257,1,5.6,90,0.0,,,0.8,0,0,n/a,2020-07-02T07:04:58Z
2020-07-02 19:09:55,6,4.5,1020.5,WSW,258,1.1,3.7,90,0.0,,,0.8,0,0,n/a,2020-07-02T07:09:55Z
2020-07-02 19:14:55,6,4.5,1020.5,WSW,256,1.7,5.6,90,0.0,,,0.8,0,0,n/a,2020-07-02T07:14:55Z
2020-07-02 19:19:55,6,4.5,1020.5,WSW,247,1.2,5.6,90,0.0,,,0.8,0,0,n/a,2020-07-02T07:19:55Z
2020-07-02 19:24:54,6,4.6,1020.6,WSW,247,2.1,4.8,90.7,0.0,,,0.8,0,0,n/a,2020-07-02T07:24:54Z
2020-07-02 19:29:57,6.1,4.7,1020.6,WSW,248,3.1,6.4,91,0.0,,,0.8,0,0,n/a,2020-07-02T07:29:57Z
2020-07-02 19:34:51,6.1,4.8,1020.6,West,261,2.2,8,91,0.0,,,0.8,0,0,n/a,2020-07-02T07:34:51Z
2020-07-02 19:39:59,6.1,4.8,1020.6,West,276,2.4,7.4,91,0.0,,,0.8,0,0,n/a,2020-07-02T07:39:59Z
2020-07-02 19:44:58,6.1,4.8,1020.7,WSW,258,3.1,8,90.7,0.0,,,0.8,0,0,n/a,2020-07-02T07:44:58Z
2020-07-02 19:49:56,6.2,4.7,1020.7,West,263,3.6,6.4,90,0.0,,,0.8,0,0,n/a,2020-07-02T07:49:56Z
2020-07-02 19:54:56,6.2,4.7,1020.7,West,264,2.1,6.4,90.2,0.0,,,0.8,0,0,n/a,2020-07-02T07:54:56Z
2020-07-02 19:59:58,6.2,4.7,1020.7,WSW,255,1.8,5.6,90.4,0.0,,,0.8,0,0,n/a,2020-07-02T07:59:58Z
2020-07-02 20:04:55,6.1,4.6,1020.7,West,264,3.2,6.4,90,0.0,,,0.8,0,0,n/a,2020-07-02T08:04:55Z
2020-07-02 20:09:56,6.1,4.6,1020.7,West,263,2.2,5.6,90,0.0,,,0.8,0,0,n/a,2020-07-02T08:09:56Z
2020-07-02 20:14:55,6,4.5,1020.8,West,264,2,6.4,90,0.0,,,0.8,0,0,n/a,2020-07-02T08:14:55Z
2020-07-02 20:19:55,5.9,4.4,1020.8,WSW,253,2.6,6.4,90,0.0,,,0.8,0,0,n/a,2020-07-02T08:19:55Z
2020-07-02 20:24:59,5.8,4.3,1020.9,West,261,2.1,5.6,90,0.0,,,0.8,0,0,n/a,2020-07-02T08:24:59Z
2020-07-02 20:29:59,5.8,4.3,1020.9,West,269,1.8,5.6,90,0.0,,,0.8,0,0,n/a,2020-07-02T08:29:59Z
2020-07-02 20:34:54,5.8,4.3,1021.0,West,269,1.5,3.7,90,0.0,,,0.8,0,0,n/a,2020-07-02T08:34:54Z
2020-07-02 20:39:56,5.8,4.3,1021.0,West,269,0.4,1.9,90,0.0,,,0.8,0,0,n/a,2020-07-02T08:39:56Z
2020-07-02 20:44:50,5.7,4.2,1021.1,West,269,0.2,1.9,90,0.0,,,0.8,0,0,n/a,2020-07-02T08:44:50Z
2020-07-02 20:49:55,5.7,4.2,1021.1,West,269,1.2,3.7,90,0.0,,,0.8,0,0,n/a,2020-07-02T08:49:55Z
2020-07-02 20:53:16,5.7,4.2,1021.0,WNW,303,3.1,5.6,90,0.0,,,0.8,0,0,n/a,2020-07-02T08:53:16Z